This is the latest recevied weather packets stored in our database for station/object KB2SKP. If no packets are shown the sender has not sent any weather packets the latest 1 day(s).
| Time | Temp. | Humidity | Pressure | Rain* | Wind** | Luminosity | Snow |
|---|---|---|---|---|---|---|---|
| 1778091718 | 19.44° C | 83% | 1006 hPa | 0 mm | - | 127 W/m² | - |
| 1778090809 | 18.89° C | 86% | 1006.4 hPa | 0 mm | - | 127 W/m² | - |
| 1778090500 | 18.89° C | 87% | 1006.5 hPa | 0 mm | - | 128 W/m² | - |
| 1778090197 | 18.89° C | 88% | 1006.6 hPa | 0 mm | - | 122 W/m² | - |
| 1778089892 | 18.33° C | 89% | 1006.5 hPa | 0 mm | - | 118 W/m² | - |
| 1778087768 | 17.78° C | 91% | 1006.7 hPa | 0 mm | - | 116 W/m² | - |
| 1778087465 | 17.22° C | 91% | 1006.9 hPa | 0 mm | - | 117 W/m² | - |
| 1778086854 | 17.22° C | 92% | 1006.7 hPa | 0 mm | - | 113 W/m² | - |
| 1778086248 | 17.22° C | 92% | 1006.9 hPa | 0 mm | - | 121 W/m² | - |
| 1778085338 | 16.67° C | 93% | 1006.9 hPa | 0.51 mm | - | 73 W/m² | - |
| 1778085034 | 16.67° C | 93% | 1006.9 hPa | 0.51 mm | - | 84 W/m² | - |
| 1778082909 | 16.67° C | 91% | 1007.8 hPa | 2.29 mm | - | 32 W/m² | - |
| 1778081498 | 17.22° C | 87% | 1008 hPa | 0 mm | - | 70 W/m² | - |
| 1778080591 | 17.78° C | 85% | 1008.2 hPa | 0 mm | - | 36 W/m² | - |
| 1778079984 | 17.78° C | 84% | 1008.3 hPa | 0 mm | - | 51 W/m² | - |
| 1778079075 | 17.78° C | 84% | 1008.2 hPa | 0 mm | - | 73 W/m² | - |
| 1778078772 | 17.78° C | 85% | 1008 hPa | 0 mm | - | 76 W/m² | - |
| 1778078469 | 17.78° C | 85% | 1008.2 hPa | 0 mm | - | 61 W/m² | - |
| 1778078167 | 17.78° C | 84% | 1008.1 hPa | 0 mm | - | 73 W/m² | - |
| 1778076353 | 18.89° C | 74% | 1008 hPa | 0 mm | - | 41 W/m² | - |
| 1778075140 | 19.44° C | 71% | 1008.3 hPa | 0 mm | - | 49 W/m² | - |
| 1778074533 | 19.44° C | 71% | 1008 hPa | 0 mm | - | 55 W/m² | - |
| 1778074230 | 19.44° C | 70% | 1008 hPa | 0 mm | - | 63 W/m² | - |
| 1778073018 | 19.44° C | 71% | 1007.8 hPa | 0 mm | - | 55 W/m² | - |
| 1778070901 | 18.89° C | 72% | 1007.4 hPa | 0 mm | - | 63 W/m² | - |
* Rain latest hour (hover to see other rain measurements)
** Current wind speed in m/s (hover to see current wind gust speed)